UBBBURML

Guest
Details From UBBB - Heydar Aliyev
To URML - Uytash
Flight Number -
Tags Decoded
Created
Modified
Stats Distance 149 nm / 277 km
Max Altitude 0 ft / 0 m
Waypoints 6
Social Downloads 0
Likes 0
Share VATSIM

Download

Looking for another format? Having issues loading an existing format? Contact us
Advertisement - Login to hide

Notes

Decoded

Route

UBBB SAGIL GINET OKTAT MOTEG NESAD

ID Type Via Altitude Latitude Longitude Leg Dist Tot Dist Heading (true) Name
O UBBB APT - 0 ft / 0 m 40.48000˚ 50.03500˚ - 0 nm - -
SAGIL FIX - 0 ft / 0 m 40.63333˚ 49.56667˚ 23 nm 23 nm 293° / 293° -
GINET FIX - 0 ft / 0 m 40.59333˚ 48.87000˚ 31 nm 55 nm 266° / 265° -
OKTAT FIX - 0 ft / 0 m 41.42333˚ 48.55333˚ 51 nm 106 nm 344° / 344° -
MOTEG FIX - 0 ft / 0 m 41.67667˚ 48.45000˚ 15 nm 122 nm 343° / 343° -
O NESAD FIX - 0 ft / 0 m 42.10000˚ 48.28333˚ 26 nm 149 nm 344° / 344° -

Altitude Profile

Advertisement - Login to hide

UBBB

Details ICAO UBBB (GYD)
Name HEYDAR ALIYEV
Region Azerbiajan
Timezone Asia/Baku (UTC+4.0)
Stats Elevation 10 ft / 3 m (AMSL)
Location 40.470000° 50.052083°
Runways 2
Magnetic Variation 6.234° E

METAR

UBBB 140630Z 10010KT 9999 OVC019 07/04 Q1025 R88/D NOSIG

Decode

TAF

Not found

Departure Runways

ID Width Length Bearing (true) Bearing (mag) Surface Threshold Offset Overrun Length
16 197 ft / 60 m 9,110 ft / 2,777 m 159.17° 152.94° Asphalt 0 ft / 0 m 1,312 ft / 400 m
18 167 ft / 51 m 10,947 ft / 3,337 m 180.00° 173.77° Concrete 0 ft / 0 m 1,312 ft / 400 m
34 197 ft / 60 m 9,110 ft / 2,777 m 339.18° 332.95° Asphalt 0 ft / 0 m 656 ft / 200 m
36 167 ft / 51 m 10,947 ft / 3,337 m 0.00° 353.77° Concrete 444 ft / 135 m 541 ft / 165 m

URML

Details ICAO URML (MCX)
Name UYTASH
Region Russia
Timezone Europe/Moscow (UTC+3.0)
Stats Elevation 12 ft / 4 m (AMSL)
Location 42.816582° 47.651930°
Runways 2
Magnetic Variation 7.057° E

METAR

URML 140630Z 15012MPS 8000 -RA SCT006 OVC027 07/06 Q1023 R14/290060 TEMPO 14013G18MPS 3100 BR BKN005 RMK QBB200 MT OBSC QFE767/1023

Decode

TAF

Not found

Destination Runways

ID Width Length Bearing (true) Bearing (mag) Surface Threshold Offset Overrun Length
14 138 ft / 42 m 8,643 ft / 2,634 m 148.10° 141.04° Concrete 0 ft / 0 m 0 ft / 0 m
14R 230 ft / 70 m 8,690 ft / 2,649 m 147.93° 140.87° Grass 0 ft / 0 m 0 ft / 0 m
32 138 ft / 42 m 8,643 ft / 2,634 m 328.11° 321.05° Concrete 0 ft / 0 m 0 ft / 0 m
32L 230 ft / 70 m 8,690 ft / 2,649 m 327.94° 320.88° Grass 0 ft / 0 m 0 ft / 0 m

Approach Navaids

Runway Type Ident Frequency Range Bearing (true) Bearing (mag) Slope Elevation
14 Localiser IHC 108.30 MHz 18 nm / 33 km 149.53° 142.47° - 12 ft / 4 m (AMSL)
14 Glidescope IHC 108.30 MHz 10 nm / 19 km 148.11° 141.05° 2.70° 12 ft / 4 m (AMSL)
32 Localiser ISM 109.90 MHz 18 nm / 33 km 324.61° 317.55° - 12 ft / 4 m (AMSL)
32 Glidescope ISM 109.90 MHz 10 nm / 19 km 328.11° 321.05° 2.70° 12 ft / 4 m (AMSL)

Popular Alternatives